sensor_id;sensor_type;location;lat;lon;timestamp;P1;durP1;ratioP1;P2;durP2;ratioP2
12972;SDS011;6551;51.056;9.466;2022-11-20T00:01:41;14.17;;;8.63;;
12972;SDS011;6551;51.056;9.466;2022-11-20T00:04:08;16.37;;;9.23;;
12972;SDS011;6551;51.056;9.466;2022-11-20T00:06:36;15.80;;;9.27;;
12972;SDS011;6551;51.056;9.466;2022-11-20T00:09:01;14.00;;;8.73;;
12972;SDS011;6551;51.056;9.466;2022-11-20T00:11:27;14.97;;;9.30;;
12972;SDS011;6551;51.056;9.466;2022-11-20T00:13:56;15.50;;;9.20;;
12972;SDS011;6551;51.056;9.466;2022-11-20T00:16:25;15.00;;;9.33;;
12972;SDS011;6551;51.056;9.466;2022-11-20T00:18:53;17.83;;;10.50;;
12972;SDS011;6551;51.056;9.466;2022-11-20T00:21:20;15.10;;;9.27;;
12972;SDS011;6551;51.056;9.466;2022-11-20T00:23:52;14.20;;;10.00;;
12972;SDS011;6551;51.056;9.466;2022-11-20T00:26:20;19.97;;;10.40;;
12972;SDS011;6551;51.056;9.466;2022-11-20T00:28:52;16.70;;;10.30;;
12972;SDS011;6551;51.056;9.466;2022-11-20T00:31:25;16.67;;;10.30;;
12972;SDS011;6551;51.056;9.466;2022-11-20T00:33:52;18.67;;;10.77;;
12972;SDS011;6551;51.056;9.466;2022-11-20T00:36:19;18.17;;;11.20;;
12972;SDS011;6551;51.056;9.466;2022-11-20T00:38:50;19.20;;;10.97;;
12972;SDS011;6551;51.056;9.466;2022-11-20T00:41:21;16.87;;;10.43;;
12972;SDS011;6551;51.056;9.466;2022-11-20T00:43:46;18.10;;;10.43;;
12972;SDS011;6551;51.056;9.466;2022-11-20T00:46:14;18.63;;;10.67;;
12972;SDS011;6551;51.056;9.466;2022-11-20T00:48:42;17.33;;;10.17;;
12972;SDS011;6551;51.056;9.466;2022-11-20T00:51:09;17.17;;;10.57;;
12972;SDS011;6551;51.056;9.466;2022-11-20T00:53:37;15.80;;;9.83;;
12972;SDS011;6551;51.056;9.466;2022-11-20T00:56:04;16.23;;;9.33;;
12972;SDS011;6551;51.056;9.466;2022-11-20T00:58:36;15.47;;;9.93;;
12972;SDS011;6551;51.056;9.466;2022-11-20T01:01:05;15.40;;;8.47;;
12972;SDS011;6551;51.056;9.466;2022-11-20T01:03:41;13.37;;;9.00;;
12972;SDS011;6551;51.056;9.466;2022-11-20T01:06:10;13.43;;;8.43;;
12972;SDS011;6551;51.056;9.466;2022-11-20T01:08:38;13.50;;;8.73;;
12972;SDS011;6551;51.056;9.466;2022-11-20T01:11:05;13.53;;;9.07;;
12972;SDS011;6551;51.056;9.466;2022-11-20T01:13:37;15.67;;;9.07;;
12972;SDS011;6551;51.056;9.466;2022-11-20T01:16:13;12.77;;;8.90;;
12972;SDS011;6551;51.056;9.466;2022-11-20T01:18:43;12.50;;;9.03;;
12972;SDS011;6551;51.056;9.466;2022-11-20T01:21:13;14.93;;;9.23;;
12972;SDS011;6551;51.056;9.466;2022-11-20T01:23:42;26.13;;;14.70;;
12972;SDS011;6551;51.056;9.466;2022-11-20T01:26:10;20.63;;;11.77;;
12972;SDS011;6551;51.056;9.466;2022-11-20T01:28:57;17.50;;;10.33;;
12972;SDS011;6551;51.056;9.466;2022-11-20T01:31:25;24.87;;;13.63;;
12972;SDS011;6551;51.056;9.466;2022-11-20T01:33:57;17.73;;;10.67;;
12972;SDS011;6551;51.056;9.466;2022-11-20T01:36:27;18.77;;;10.67;;
12972;SDS011;6551;51.056;9.466;2022-11-20T01:38:56;14.50;;;9.53;;
12972;SDS011;6551;51.056;9.466;2022-11-20T01:41:25;16.90;;;9.93;;
12972;SDS011;6551;51.056;9.466;2022-11-20T01:44:13;20.73;;;12.23;;
12972;SDS011;6551;51.056;9.466;2022-11-20T01:49:30;28.70;;;14.20;;
12972;SDS011;6551;51.056;9.466;2022-11-20T01:52:14;21.87;;;12.83;;
12972;SDS011;6551;51.056;9.466;2022-11-20T01:55:28;25.73;;;15.70;;
12972;SDS011;6551;51.056;9.466;2022-11-20T01:57:37;24.70;;;13.70;;
12972;SDS011;6551;51.056;9.466;2022-11-20T02:00:09;23.00;;;13.73;;
12972;SDS011;6551;51.056;9.466;2022-11-20T02:02:39;23.57;;;13.67;;
12972;SDS011;6551;51.056;9.466;2022-11-20T02:07:52;20.00;;;11.43;;
12972;SDS011;6551;51.056;9.466;2022-11-20T02:10:22;18.47;;;10.50;;
12972;SDS011;6551;51.056;9.466;2022-11-20T02:12:47;16.60;;;10.20;;
12972;SDS011;6551;51.056;9.466;2022-11-20T02:15:32;20.27;;;11.40;;
12972;SDS011;6551;51.056;9.466;2022-11-20T02:17:58;22.17;;;11.87;;
12972;SDS011;6551;51.056;9.466;2022-11-20T02:20:24;20.43;;;11.23;;
12972;SDS011;6551;51.056;9.466;2022-11-20T02:22:52;20.23;;;12.27;;
12972;SDS011;6551;51.056;9.466;2022-11-20T02:25:46;21.17;;;12.47;;
12972;SDS011;6551;51.056;9.466;2022-11-20T02:28:12;20.37;;;11.40;;
12972;SDS011;6551;51.056;9.466;2022-11-20T02:30:38;20.37;;;11.80;;
12972;SDS011;6551;51.056;9.466;2022-11-20T02:33:04;23.47;;;13.20;;
12972;SDS011;6551;51.056;9.466;2022-11-20T02:37:56;24.97;;;13.77;;
12972;SDS011;6551;51.056;9.466;2022-11-20T02:40:25;22.27;;;14.10;;
12972;SDS011;6551;51.056;9.466;2022-11-20T02:42:52;23.57;;;14.43;;
12972;SDS011;6551;51.056;9.466;2022-11-20T02:45:18;21.87;;;13.20;;
12972;SDS011;6551;51.056;9.466;2022-11-20T02:47:44;15.83;;;10.17;;
12972;SDS011;6551;51.056;9.466;2022-11-20T02:50:11;19.40;;;11.83;;
12972;SDS011;6551;51.056;9.466;2022-11-20T02:52:37;19.83;;;11.17;;
12972;SDS011;6551;51.056;9.466;2022-11-20T02:55:02;24.60;;;13.67;;
12972;SDS011;6551;51.056;9.466;2022-11-20T02:57:29;26.80;;;15.10;;
12972;SDS011;6551;51.056;9.466;2022-11-20T02:59:55;26.00;;;15.90;;
12972;SDS011;6551;51.056;9.466;2022-11-20T03:02:20;23.60;;;14.83;;
12972;SDS011;6551;51.056;9.466;2022-11-20T03:04:46;20.93;;;12.83;;
12972;SDS011;6551;51.056;9.466;2022-11-20T03:07:12;16.87;;;10.33;;
12972;SDS011;6551;51.056;9.466;2022-11-20T03:09:37;18.10;;;10.77;;
12972;SDS011;6551;51.056;9.466;2022-11-20T03:12:03;17.93;;;10.93;;
12972;SDS011;6551;51.056;9.466;2022-11-20T03:14:30;19.33;;;10.60;;
12972;SDS011;6551;51.056;9.466;2022-11-20T03:16:55;16.37;;;10.87;;
12972;SDS011;6551;51.056;9.466;2022-11-20T03:19:21;16.03;;;10.37;;
12972;SDS011;6551;51.056;9.466;2022-11-20T03:21:48;16.47;;;10.83;;
12972;SDS011;6551;51.056;9.466;2022-11-20T03:24:14;17.77;;;11.43;;
12972;SDS011;6551;51.056;9.466;2022-11-20T03:26:40;21.03;;;12.10;;
12972;SDS011;6551;51.056;9.466;2022-11-20T03:29:05;18.10;;;11.87;;
12972;SDS011;6551;51.056;9.466;2022-11-20T03:31:33;17.27;;;11.63;;
12972;SDS011;6551;51.056;9.466;2022-11-20T03:34:05;16.93;;;11.87;;
12972;SDS011;6551;51.056;9.466;2022-11-20T03:36:32;17.70;;;12.47;;
12972;SDS011;6551;51.056;9.466;2022-11-20T03:38:58;18.87;;;12.77;;
12972;SDS011;6551;51.056;9.466;2022-11-20T03:41:25;20.00;;;12.23;;
12972;SDS011;6551;51.056;9.466;2022-11-20T03:43:55;17.93;;;12.00;;
12972;SDS011;6551;51.056;9.466;2022-11-20T03:46:26;17.60;;;10.97;;
12972;SDS011;6551;51.056;9.466;2022-11-20T03:48:53;15.70;;;10.53;;
12972;SDS011;6551;51.056;9.466;2022-11-20T03:51:20;15.53;;;10.10;;
12972;SDS011;6551;51.056;9.466;2022-11-20T03:53:49;18.97;;;9.47;;
12972;SDS011;6551;51.056;9.466;2022-11-20T03:56:18;17.67;;;11.40;;
12972;SDS011;6551;51.056;9.466;2022-11-20T03:58:47;16.30;;;11.30;;
12972;SDS011;6551;51.056;9.466;2022-11-20T04:01:14;17.37;;;11.03;;
12972;SDS011;6551;51.056;9.466;2022-11-20T04:03:49;16.93;;;10.50;;
12972;SDS011;6551;51.056;9.466;2022-11-20T04:06:18;19.43;;;11.73;;
12972;SDS011;6551;51.056;9.466;2022-11-20T04:08:47;20.90;;;11.27;;
12972;SDS011;6551;51.056;9.466;2022-11-20T04:11:14;19.10;;;12.37;;
12972;SDS011;6551;51.056;9.466;2022-11-20T04:13:46;19.90;;;14.30;;
12972;SDS011;6551;51.056;9.466;2022-11-20T04:16:35;20.93;;;12.27;;
12972;SDS011;6551;51.056;9.466;2022-11-20T04:19:02;18.40;;;12.03;;
12972;SDS011;6551;51.056;9.466;2022-11-20T04:21:30;18.80;;;11.10;;
12972;SDS011;6551;51.056;9.466;2022-11-20T04:23:56;19.70;;;13.17;;
12972;SDS011;6551;51.056;9.466;2022-11-20T04:26:23;20.33;;;12.67;;
12972;SDS011;6551;51.056;9.466;2022-11-20T04:28:51;16.87;;;11.60;;
12972;SDS011;6551;51.056;9.466;2022-11-20T04:31:21;18.03;;;11.97;;
12972;SDS011;6551;51.056;9.466;2022-11-20T04:33:49;17.37;;;11.80;;
12972;SDS011;6551;51.056;9.466;2022-11-20T04:36:16;17.53;;;11.50;;
12972;SDS011;6551;51.056;9.466;2022-11-20T04:38:51;19.00;;;11.50;;
12972;SDS011;6551;51.056;9.466;2022-11-20T04:41:18;18.27;;;12.17;;
12972;SDS011;6551;51.056;9.466;2022-11-20T04:43:51;21.13;;;12.20;;
12972;SDS011;6551;51.056;9.466;2022-11-20T04:46:23;18.53;;;11.80;;
12972;SDS011;6551;51.056;9.466;2022-11-20T04:48:51;21.20;;;11.83;;
12972;SDS011;6551;51.056;9.466;2022-11-20T04:51:18;19.27;;;11.70;;
12972;SDS011;6551;51.056;9.466;2022-11-20T04:53:43;20.67;;;12.47;;
12972;SDS011;6551;51.056;9.466;2022-11-20T04:56:10;25.90;;;13.80;;
12972;SDS011;6551;51.056;9.466;2022-11-20T04:58:37;27.27;;;13.23;;
12972;SDS011;6551;51.056;9.466;2022-11-20T05:01:04;23.47;;;13.43;;
12972;SDS011;6551;51.056;9.466;2022-11-20T05:03:34;23.23;;;13.67;;
12972;SDS011;6551;51.056;9.466;2022-11-20T05:06:00;27.80;;;13.93;;
12972;SDS011;6551;51.056;9.466;2022-11-20T05:08:28;27.47;;;14.87;;
12972;SDS011;6551;51.056;9.466;2022-11-20T05:10:59;28.97;;;14.73;;
12972;SDS011;6551;51.056;9.466;2022-11-20T05:13:30;35.37;;;15.70;;
12972;SDS011;6551;51.056;9.466;2022-11-20T05:16:03;25.17;;;14.27;;
12972;SDS011;6551;51.056;9.466;2022-11-20T05:18:32;26.07;;;14.53;;
12972;SDS011;6551;51.056;9.466;2022-11-20T05:20:59;26.77;;;13.83;;
12972;SDS011;6551;51.056;9.466;2022-11-20T05:23:26;30.43;;;14.47;;
12972;SDS011;6551;51.056;9.466;2022-11-20T05:25:54;30.60;;;16.10;;
12972;SDS011;6551;51.056;9.466;2022-11-20T05:28:21;30.37;;;15.67;;
12972;SDS011;6551;51.056;9.466;2022-11-20T05:30:48;39.57;;;15.77;;
12972;SDS011;6551;51.056;9.466;2022-11-20T05:33:14;33.60;;;15.77;;
12972;SDS011;6551;51.056;9.466;2022-11-20T05:35:39;30.57;;;17.17;;
12972;SDS011;6551;51.056;9.466;2022-11-20T05:38:05;34.53;;;16.00;;
12972;SDS011;6551;51.056;9.466;2022-11-20T05:40:31;36.10;;;16.90;;
12972;SDS011;6551;51.056;9.466;2022-11-20T05:42:57;37.53;;;18.57;;
12972;SDS011;6551;51.056;9.466;2022-11-20T05:45:23;39.47;;;18.50;;
12972;SDS011;6551;51.056;9.466;2022-11-20T05:47:48;45.20;;;19.80;;
12972;SDS011;6551;51.056;9.466;2022-11-20T05:50:14;43.30;;;19.13;;
12972;SDS011;6551;51.056;9.466;2022-11-20T05:52:40;40.50;;;18.97;;
12972;SDS011;6551;51.056;9.466;2022-11-20T05:55:06;41.77;;;21.50;;
12972;SDS011;6551;51.056;9.466;2022-11-20T05:57:32;39.13;;;18.30;;
12972;SDS011;6551;51.056;9.466;2022-11-20T05:59:58;43.30;;;17.77;;
12972;SDS011;6551;51.056;9.466;2022-11-20T06:02:24;44.67;;;21.63;;
12972;SDS011;6551;51.056;9.466;2022-11-20T06:04:49;51.97;;;23.03;;
12972;SDS011;6551;51.056;9.466;2022-11-20T06:07:15;39.43;;;19.57;;
12972;SDS011;6551;51.056;9.466;2022-11-20T06:09:41;39.03;;;18.63;;
12972;SDS011;6551;51.056;9.466;2022-11-20T06:12:06;38.40;;;17.67;;
12972;SDS011;6551;51.056;9.466;2022-11-20T06:14:32;39.63;;;20.43;;
12972;SDS011;6551;51.056;9.466;2022-11-20T06:16:58;38.00;;;18.23;;
12972;SDS011;6551;51.056;9.466;2022-11-20T06:19:24;36.07;;;18.47;;
12972;SDS011;6551;51.056;9.466;2022-11-20T06:21:52;34.17;;;16.83;;
12972;SDS011;6551;51.056;9.466;2022-11-20T06:24:18;56.17;;;18.30;;
12972;SDS011;6551;51.056;9.466;2022-11-20T06:26:44;36.73;;;19.53;;
12972;SDS011;6551;51.056;9.466;2022-11-20T06:29:10;40.90;;;21.83;;
12972;SDS011;6551;51.056;9.466;2022-11-20T06:31:36;43.53;;;20.10;;
12972;SDS011;6551;51.056;9.466;2022-11-20T06:34:03;42.43;;;18.43;;
12972;SDS011;6551;51.056;9.466;2022-11-20T06:36:31;38.80;;;18.33;;
12972;SDS011;6551;51.056;9.466;2022-11-20T06:38:57;34.93;;;17.30;;
12972;SDS011;6551;51.056;9.466;2022-11-20T06:41:22;41.33;;;17.93;;
12972;SDS011;6551;51.056;9.466;2022-11-20T06:43:48;45.30;;;20.10;;
12972;SDS011;6551;51.056;9.466;2022-11-20T06:46:15;39.77;;;18.77;;
12972;SDS011;6551;51.056;9.466;2022-11-20T06:48:43;40.60;;;19.70;;
12972;SDS011;6551;51.056;9.466;2022-11-20T06:51:09;53.60;;;19.70;;
12972;SDS011;6551;51.056;9.466;2022-11-20T06:53:35;43.00;;;18.40;;
12972;SDS011;6551;51.056;9.466;2022-11-20T06:56:02;46.37;;;18.67;;
12972;SDS011;6551;51.056;9.466;2022-11-20T06:58:29;48.87;;;19.97;;
12972;SDS011;6551;51.056;9.466;2022-11-20T07:00:59;49.80;;;19.77;;
12972;SDS011;6551;51.056;9.466;2022-11-20T07:03:32;54.67;;;19.70;;
12972;SDS011;6551;51.056;9.466;2022-11-20T07:05:58;37.87;;;19.07;;
12972;SDS011;6551;51.056;9.466;2022-11-20T07:08:24;40.70;;;19.50;;
12972;SDS011;6551;51.056;9.466;2022-11-20T07:10:50;43.03;;;19.27;;
12972;SDS011;6551;51.056;9.466;2022-11-20T07:13:16;42.70;;;20.40;;
12972;SDS011;6551;51.056;9.466;2022-11-20T07:15:42;58.07;;;20.33;;
12972;SDS011;6551;51.056;9.466;2022-11-20T07:18:08;45.13;;;21.70;;
12972;SDS011;6551;51.056;9.466;2022-11-20T07:20:33;43.37;;;21.00;;
12972;SDS011;6551;51.056;9.466;2022-11-20T07:22:59;41.97;;;20.23;;
12972;SDS011;6551;51.056;9.466;2022-11-20T07:25:26;47.70;;;19.47;;
12972;SDS011;6551;51.056;9.466;2022-11-20T07:27:53;52.20;;;24.00;;
12972;SDS011;6551;51.056;9.466;2022-11-20T07:30:26;43.90;;;21.63;;
12972;SDS011;6551;51.056;9.466;2022-11-20T07:32:53;65.83;;;24.83;;
12972;SDS011;6551;51.056;9.466;2022-11-20T07:35:20;49.53;;;22.10;;
12972;SDS011;6551;51.056;9.466;2022-11-20T07:37:47;54.07;;;22.03;;
12972;SDS011;6551;51.056;9.466;2022-11-20T07:40:14;50.17;;;22.30;;
12972;SDS011;6551;51.056;9.466;2022-11-20T07:42:47;51.80;;;21.47;;
12972;SDS011;6551;51.056;9.466;2022-11-20T07:45:15;52.00;;;22.20;;
12972;SDS011;6551;51.056;9.466;2022-11-20T07:47:41;65.50;;;26.47;;
12972;SDS011;6551;51.056;9.466;2022-11-20T07:50:07;74.60;;;27.27;;
12972;SDS011;6551;51.056;9.466;2022-11-20T07:52:33;74.07;;;34.10;;
12972;SDS011;6551;51.056;9.466;2022-11-20T07:54:59;58.47;;;21.73;;
12972;SDS011;6551;51.056;9.466;2022-11-20T07:57:24;64.93;;;30.50;;
12972;SDS011;6551;51.056;9.466;2022-11-20T07:59:50;76.10;;;34.10;;
12972;SDS011;6551;51.056;9.466;2022-11-20T08:02:15;62.17;;;27.10;;
12972;SDS011;6551;51.056;9.466;2022-11-20T08:04:41;59.13;;;28.20;;
12972;SDS011;6551;51.056;9.466;2022-11-20T08:07:07;59.13;;;27.17;;
12972;SDS011;6551;51.056;9.466;2022-11-20T08:09:32;65.87;;;28.47;;
12972;SDS011;6551;51.056;9.466;2022-11-20T08:11:58;82.50;;;32.57;;
12972;SDS011;6551;51.056;9.466;2022-11-20T08:14:42;61.17;;;24.23;;
12972;SDS011;6551;51.056;9.466;2022-11-20T08:17:08;60.40;;;25.83;;
12972;SDS011;6551;51.056;9.466;2022-11-20T08:19:34;59.70;;;27.97;;
12972;SDS011;6551;51.056;9.466;2022-11-20T08:22:00;69.67;;;24.97;;
12972;SDS011;6551;51.056;9.466;2022-11-20T08:24:26;61.20;;;23.33;;
12972;SDS011;6551;51.056;9.466;2022-11-20T08:26:51;72.37;;;22.13;;
12972;SDS011;6551;51.056;9.466;2022-11-20T08:29:17;90.80;;;22.83;;
12972;SDS011;6551;51.056;9.466;2022-11-20T08:31:43;55.83;;;22.07;;
12972;SDS011;6551;51.056;9.466;2022-11-20T08:34:09;56.00;;;22.63;;
12972;SDS011;6551;51.056;9.466;2022-11-20T08:36:35;60.53;;;23.67;;
12972;SDS011;6551;51.056;9.466;2022-11-20T08:39:01;50.60;;;21.63;;
12972;SDS011;6551;51.056;9.466;2022-11-20T08:41:28;55.40;;;22.03;;
12972;SDS011;6551;51.056;9.466;2022-11-20T08:44:01;54.77;;;23.07;;
12972;SDS011;6551;51.056;9.466;2022-11-20T08:46:36;70.43;;;23.43;;
12972;SDS011;6551;51.056;9.466;2022-11-20T08:49:06;48.93;;;22.17;;
12972;SDS011;6551;51.056;9.466;2022-11-20T08:51:34;55.20;;;24.10;;
12972;SDS011;6551;51.056;9.466;2022-11-20T08:54:01;61.07;;;25.07;;
12972;SDS011;6551;51.056;9.466;2022-11-20T08:56:27;67.10;;;27.13;;
12972;SDS011;6551;51.056;9.466;2022-11-20T08:58:53;63.50;;;27.17;;
12972;SDS011;6551;51.056;9.466;2022-11-20T09:01:19;59.60;;;25.50;;
12972;SDS011;6551;51.056;9.466;2022-11-20T09:03:46;55.63;;;23.20;;
12972;SDS011;6551;51.056;9.466;2022-11-20T09:06:12;59.50;;;24.77;;
12972;SDS011;6551;51.056;9.466;2022-11-20T09:08:38;59.03;;;23.80;;
12972;SDS011;6551;51.056;9.466;2022-11-20T09:11:04;55.53;;;23.07;;
12972;SDS011;6551;51.056;9.466;2022-11-20T09:13:31;56.97;;;24.50;;
12972;SDS011;6551;51.056;9.466;2022-11-20T09:16:03;65.40;;;25.03;;
12972;SDS011;6551;51.056;9.466;2022-11-20T09:18:32;54.13;;;23.67;;
12972;SDS011;6551;51.056;9.466;2022-11-20T09:21:02;62.17;;;24.57;;
12972;SDS011;6551;51.056;9.466;2022-11-20T09:23:31;58.03;;;24.73;;
12972;SDS011;6551;51.056;9.466;2022-11-20T09:26:06;55.10;;;24.53;;
12972;SDS011;6551;51.056;9.466;2022-11-20T09:28:35;56.70;;;25.10;;
12972;SDS011;6551;51.056;9.466;2022-11-20T09:31:04;64.93;;;25.07;;
12972;SDS011;6551;51.056;9.466;2022-11-20T09:33:31;62.00;;;25.40;;
12972;SDS011;6551;51.056;9.466;2022-11-20T09:35:57;58.03;;;25.23;;
12972;SDS011;6551;51.056;9.466;2022-11-20T09:38:23;59.43;;;25.03;;
12972;SDS011;6551;51.056;9.466;2022-11-20T09:40:58;62.10;;;24.70;;
12972;SDS011;6551;51.056;9.466;2022-11-20T09:46:36;67.70;;;32.07;;
12972;SDS011;6551;51.056;9.466;2022-11-20T09:54:19;54.43;;;24.83;;
12972;SDS011;6551;51.056;9.466;2022-11-20T09:56:49;48.03;;;25.27;;
12972;SDS011;6551;51.056;9.466;2022-11-20T09:59:27;60.53;;;26.17;;
12972;SDS011;6551;51.056;9.466;2022-11-20T10:02:16;58.73;;;24.27;;
12972;SDS011;6551;51.056;9.466;2022-11-20T10:04:53;58.17;;;27.13;;
12972;SDS011;6551;51.056;9.466;2022-11-20T10:25:13;55.33;;;27.37;;
12972;SDS011;6551;51.056;9.466;2022-11-20T10:31:09;62.23;;;24.30;;
12972;SDS011;6551;51.056;9.466;2022-11-20T10:34:22;54.90;;;25.33;;
12972;SDS011;6551;51.056;9.466;2022-11-20T10:42:49;132.60;;;51.10;;
12972;SDS011;6551;51.056;9.466;2022-11-20T10:48:07;97.00;;;36.37;;
12972;SDS011;6551;51.056;9.466;2022-11-20T10:50:44;92.47;;;36.40;;
12972;SDS011;6551;51.056;9.466;2022-11-20T10:53:58;73.20;;;31.17;;
12972;SDS011;6551;51.056;9.466;2022-11-20T10:56:40;68.97;;;29.77;;
12972;SDS011;6551;51.056;9.466;2022-11-20T11:01:55;59.43;;;26.77;;
12972;SDS011;6551;51.056;9.466;2022-11-20T11:04:38;64.10;;;27.07;;
12972;SDS011;6551;51.056;9.466;2022-11-20T11:07:12;68.03;;;31.20;;
12972;SDS011;6551;51.056;9.466;2022-11-20T11:09:50;51.60;;;24.40;;
12972;SDS011;6551;51.056;9.466;2022-11-20T11:12:27;60.00;;;25.80;;
12972;SDS011;6551;51.056;9.466;2022-11-20T11:14:54;57.37;;;26.27;;
12972;SDS011;6551;51.056;9.466;2022-11-20T11:17:32;54.90;;;26.37;;
12972;SDS011;6551;51.056;9.466;2022-11-20T11:20:00;48.50;;;25.07;;
12972;SDS011;6551;51.056;9.466;2022-11-20T11:22:29;38.90;;;21.63;;
12972;SDS011;6551;51.056;9.466;2022-11-20T11:24:58;47.40;;;24.57;;
12972;SDS011;6551;51.056;9.466;2022-11-20T11:27:24;57.33;;;25.27;;
12972;SDS011;6551;51.056;9.466;2022-11-20T11:29:50;54.73;;;28.50;;
12972;SDS011;6551;51.056;9.466;2022-11-20T11:32:39;54.17;;;23.63;;
12972;SDS011;6551;51.056;9.466;2022-11-20T11:35:06;52.27;;;24.57;;
12972;SDS011;6551;51.056;9.466;2022-11-20T11:37:46;45.57;;;23.83;;
12972;SDS011;6551;51.056;9.466;2022-11-20T11:40:13;44.00;;;22.77;;
12972;SDS011;6551;51.056;9.466;2022-11-20T11:42:43;53.83;;;27.43;;
12972;SDS011;6551;51.056;9.466;2022-11-20T11:45:16;62.93;;;27.83;;
12972;SDS011;6551;51.056;9.466;2022-11-20T11:47:45;61.37;;;26.70;;
12972;SDS011;6551;51.056;9.466;2022-11-20T11:56:03;61.87;;;25.13;;
12972;SDS011;6551;51.056;9.466;2022-11-20T11:58:48;62.67;;;27.03;;
12972;SDS011;6551;51.056;9.466;2022-11-20T12:07:19;58.07;;;23.63;;
12972;SDS011;6551;51.056;9.466;2022-11-20T12:09:58;53.10;;;23.43;;
12972;SDS011;6551;51.056;9.466;2022-11-20T12:12:30;49.73;;;24.33;;
12972;SDS011;6551;51.056;9.466;2022-11-20T12:15:04;61.10;;;25.63;;
12972;SDS011;6551;51.056;9.466;2022-11-20T12:17:36;54.07;;;24.40;;
12972;SDS011;6551;51.056;9.466;2022-11-20T12:20:02;60.43;;;24.03;;
12972;SDS011;6551;51.056;9.466;2022-11-20T12:25:11;59.90;;;26.20;;
12972;SDS011;6551;51.056;9.466;2022-11-20T12:30:54;59.00;;;28.80;;
12972;SDS011;6551;51.056;9.466;2022-11-20T12:36:29;57.70;;;26.80;;
12972;SDS011;6551;51.056;9.466;2022-11-20T13:00:17;50.83;;;22.63;;
12972;SDS011;6551;51.056;9.466;2022-11-20T13:17:00;72.33;;;39.13;;
12972;SDS011;6551;51.056;9.466;2022-11-20T13:19:30;40.50;;;23.43;;
12972;SDS011;6551;51.056;9.466;2022-11-20T13:21:57;38.97;;;21.93;;
12972;SDS011;6551;51.056;9.466;2022-11-20T13:24:26;39.20;;;20.13;;
12972;SDS011;6551;51.056;9.466;2022-11-20T13:29:33;49.53;;;27.63;;
12972;SDS011;6551;51.056;9.466;2022-11-20T13:32:22;57.63;;;30.20;;
12972;SDS011;6551;51.056;9.466;2022-11-20T13:34:54;53.63;;;25.77;;
12972;SDS011;6551;51.056;9.466;2022-11-20T13:37:36;41.30;;;22.90;;
12972;SDS011;6551;51.056;9.466;2022-11-20T13:42:38;39.93;;;21.87;;
12972;SDS011;6551;51.056;9.466;2022-11-20T13:45:40;42.43;;;21.10;;
12972;SDS011;6551;51.056;9.466;2022-11-20T13:48:22;44.70;;;21.13;;
12972;SDS011;6551;51.056;9.466;2022-11-20T13:56:05;40.70;;;20.43;;
12972;SDS011;6551;51.056;9.466;2022-11-20T13:59:02;36.10;;;19.27;;
12972;SDS011;6551;51.056;9.466;2022-11-20T14:01:49;41.37;;;19.47;;
12972;SDS011;6551;51.056;9.466;2022-11-20T14:04:15;38.00;;;20.03;;
12972;SDS011;6551;51.056;9.466;2022-11-20T14:06:50;31.80;;;18.03;;
12972;SDS011;6551;51.056;9.466;2022-11-20T14:09:29;29.43;;;15.33;;
12972;SDS011;6551;51.056;9.466;2022-11-20T14:11:57;32.47;;;15.40;;
12972;SDS011;6551;51.056;9.466;2022-11-20T14:14:27;28.63;;;14.87;;
12972;SDS011;6551;51.056;9.466;2022-11-20T14:17:09;30.23;;;16.03;;
12972;SDS011;6551;51.056;9.466;2022-11-20T14:19:50;30.23;;;14.83;;
12972;SDS011;6551;51.056;9.466;2022-11-20T14:24:44;28.50;;;16.20;;
12972;SDS011;6551;51.056;9.466;2022-11-20T14:27:12;29.57;;;16.37;;
12972;SDS011;6551;51.056;9.466;2022-11-20T14:29:44;30.10;;;16.50;;
12972;SDS011;6551;51.056;9.466;2022-11-20T14:32:19;26.80;;;16.27;;
12972;SDS011;6551;51.056;9.466;2022-11-20T14:34:51;33.37;;;17.17;;
12972;SDS011;6551;51.056;9.466;2022-11-20T14:37:21;34.50;;;18.93;;
12972;SDS011;6551;51.056;9.466;2022-11-20T14:39:52;30.30;;;17.50;;
12972;SDS011;6551;51.056;9.466;2022-11-20T14:42:24;30.63;;;16.60;;
12972;SDS011;6551;51.056;9.466;2022-11-20T14:44:54;31.80;;;17.40;;
12972;SDS011;6551;51.056;9.466;2022-11-20T14:47:23;30.53;;;18.13;;
12972;SDS011;6551;51.056;9.466;2022-11-20T14:49:52;38.30;;;20.23;;
12972;SDS011;6551;51.056;9.466;2022-11-20T14:52:20;41.07;;;20.90;;
12972;SDS011;6551;51.056;9.466;2022-11-20T14:54:49;39.53;;;21.03;;
12972;SDS011;6551;51.056;9.466;2022-11-20T14:57:25;38.33;;;20.87;;
12972;SDS011;6551;51.056;9.466;2022-11-20T15:02:43;38.43;;;19.43;;
12972;SDS011;6551;51.056;9.466;2022-11-20T15:05:11;39.53;;;20.57;;
12972;SDS011;6551;51.056;9.466;2022-11-20T15:07:39;34.07;;;19.27;;
12972;SDS011;6551;51.056;9.466;2022-11-20T15:12:52;36.10;;;20.20;;
12972;SDS011;6551;51.056;9.466;2022-11-20T15:18:11;34.60;;;18.93;;
12972;SDS011;6551;51.056;9.466;2022-11-20T15:20:40;31.00;;;17.40;;
12972;SDS011;6551;51.056;9.466;2022-11-20T15:23:13;32.13;;;16.47;;
12972;SDS011;6551;51.056;9.466;2022-11-20T15:25:43;33.43;;;18.37;;
12972;SDS011;6551;51.056;9.466;2022-11-20T15:31:13;27.83;;;15.60;;
12972;SDS011;6551;51.056;9.466;2022-11-20T15:33:41;31.50;;;16.90;;
12972;SDS011;6551;51.056;9.466;2022-11-20T15:36:07;31.30;;;16.70;;
12972;SDS011;6551;51.056;9.466;2022-11-20T15:38:34;31.87;;;16.63;;
12972;SDS011;6551;51.056;9.466;2022-11-20T15:41:00;28.43;;;15.43;;
12972;SDS011;6551;51.056;9.466;2022-11-20T15:43:25;26.43;;;15.77;;
12972;SDS011;6551;51.056;9.466;2022-11-20T15:45:52;22.83;;;13.80;;
12972;SDS011;6551;51.056;9.466;2022-11-20T15:48:27;16.77;;;11.87;;
12972;SDS011;6551;51.056;9.466;2022-11-20T15:50:58;15.57;;;10.93;;
12972;SDS011;6551;51.056;9.466;2022-11-20T15:53:46;13.73;;;8.60;;
12972;SDS011;6551;51.056;9.466;2022-11-20T15:56:12;13.23;;;9.20;;
12972;SDS011;6551;51.056;9.466;2022-11-20T15:58:39;15.70;;;10.13;;
12972;SDS011;6551;51.056;9.466;2022-11-20T16:01:05;14.93;;;9.57;;
12972;SDS011;6551;51.056;9.466;2022-11-20T16:03:40;13.87;;;8.93;;
12972;SDS011;6551;51.056;9.466;2022-11-20T16:06:06;14.30;;;9.27;;
12972;SDS011;6551;51.056;9.466;2022-11-20T16:08:32;14.50;;;8.77;;
12972;SDS011;6551;51.056;9.466;2022-11-20T16:10:58;13.17;;;9.63;;
12972;SDS011;6551;51.056;9.466;2022-11-20T16:13:24;15.83;;;10.60;;
12972;SDS011;6551;51.056;9.466;2022-11-20T16:16:11;14.33;;;9.33;;
12972;SDS011;6551;51.056;9.466;2022-11-20T16:18:48;16.37;;;10.30;;
12972;SDS011;6551;51.056;9.466;2022-11-20T16:21:14;16.03;;;9.93;;
12972;SDS011;6551;51.056;9.466;2022-11-20T16:23:40;14.83;;;10.27;;
12972;SDS011;6551;51.056;9.466;2022-11-20T16:26:10;17.47;;;10.00;;
12972;SDS011;6551;51.056;9.466;2022-11-20T16:28:41;23.73;;;14.00;;
12972;SDS011;6551;51.056;9.466;2022-11-20T16:31:09;23.67;;;13.20;;
12972;SDS011;6551;51.056;9.466;2022-11-20T16:33:39;22.13;;;13.07;;
12972;SDS011;6551;51.056;9.466;2022-11-20T16:36:08;16.57;;;10.87;;
12972;SDS011;6551;51.056;9.466;2022-11-20T16:38:39;16.90;;;10.83;;
12972;SDS011;6551;51.056;9.466;2022-11-20T16:41:05;16.87;;;11.40;;
12972;SDS011;6551;51.056;9.466;2022-11-20T16:43:38;19.00;;;11.77;;
12972;SDS011;6551;51.056;9.466;2022-11-20T16:46:11;20.90;;;12.77;;
12972;SDS011;6551;51.056;9.466;2022-11-20T16:48:38;20.80;;;12.13;;
12972;SDS011;6551;51.056;9.466;2022-11-20T16:51:04;21.83;;;12.97;;
12972;SDS011;6551;51.056;9.466;2022-11-20T16:53:34;16.77;;;11.30;;
12972;SDS011;6551;51.056;9.466;2022-11-20T16:56:08;19.73;;;12.30;;
12972;SDS011;6551;51.056;9.466;2022-11-20T16:58:42;21.27;;;12.80;;
12972;SDS011;6551;51.056;9.466;2022-11-20T17:01:10;20.10;;;13.70;;